sensor_id;sensor_type;location;lat;lon;timestamp;temperature;humidity
28161;DHT22;15448;51.956;7.670;2022-07-06T00:01:29;21.90;51.00
28161;DHT22;15448;51.956;7.670;2022-07-06T00:03:55;21.90;50.90
28161;DHT22;15448;51.956;7.670;2022-07-06T00:06:21;21.80;51.10
28161;DHT22;15448;51.956;7.670;2022-07-06T00:08:46;21.80;50.70
28161;DHT22;15448;51.956;7.670;2022-07-06T00:11:12;21.80;50.60
28161;DHT22;15448;51.956;7.670;2022-07-06T00:13:37;21.70;50.60
28161;DHT22;15448;51.956;7.670;2022-07-06T00:16:03;21.70;50.80
28161;DHT22;15448;51.956;7.670;2022-07-06T00:18:29;21.70;50.70
28161;DHT22;15448;51.956;7.670;2022-07-06T00:20:55;21.80;50.70
28161;DHT22;15448;51.956;7.670;2022-07-06T00:23:20;21.80;50.50
28161;DHT22;15448;51.956;7.670;2022-07-06T00:25:46;21.70;50.60
28161;DHT22;15448;51.956;7.670;2022-07-06T00:28:13;21.70;50.80
28161;DHT22;15448;51.956;7.670;2022-07-06T00:30:39;21.70;50.80
28161;DHT22;15448;51.956;7.670;2022-07-06T00:33:04;21.70;50.70
28161;DHT22;15448;51.956;7.670;2022-07-06T00:35:30;21.70;50.70
28161;DHT22;15448;51.956;7.670;2022-07-06T00:37:55;21.70;50.70
28161;DHT22;15448;51.956;7.670;2022-07-06T00:40:21;21.70;50.70
28161;DHT22;15448;51.956;7.670;2022-07-06T00:42:48;21.60;50.70
28161;DHT22;15448;51.956;7.670;2022-07-06T00:45:14;21.70;50.60
28161;DHT22;15448;51.956;7.670;2022-07-06T00:47:41;21.70;50.70
28161;DHT22;15448;51.956;7.670;2022-07-06T00:50:09;21.70;50.80
28161;DHT22;15448;51.956;7.670;2022-07-06T00:52:45;21.70;51.00
28161;DHT22;15448;51.956;7.670;2022-07-06T00:55:13;21.70;51.00
28161;DHT22;15448;51.956;7.670;2022-07-06T00:57:39;21.70;50.90
28161;DHT22;15448;51.956;7.670;2022-07-06T01:00:10;21.70;50.80
28161;DHT22;15448;51.956;7.670;2022-07-06T01:02:36;21.60;50.70
28161;DHT22;15448;51.956;7.670;2022-07-06T01:05:06;21.60;50.70
28161;DHT22;15448;51.956;7.670;2022-07-06T01:07:32;21.60;50.90
28161;DHT22;15448;51.956;7.670;2022-07-06T01:09:58;21.50;50.70
28161;DHT22;15448;51.956;7.670;2022-07-06T01:12:24;21.50;51.10
28161;DHT22;15448;51.956;7.670;2022-07-06T01:14:50;21.50;51.00
28161;DHT22;15448;51.956;7.670;2022-07-06T01:17:17;21.50;51.10
28161;DHT22;15448;51.956;7.670;2022-07-06T01:19:42;21.50;51.10
28161;DHT22;15448;51.956;7.670;2022-07-06T01:22:09;21.50;51.20
28161;DHT22;15448;51.956;7.670;2022-07-06T01:24:36;21.50;51.10
28161;DHT22;15448;51.956;7.670;2022-07-06T01:27:05;21.50;51.30
28161;DHT22;15448;51.956;7.670;2022-07-06T01:29:34;21.50;51.30
28161;DHT22;15448;51.956;7.670;2022-07-06T01:32:00;21.50;51.40
28161;DHT22;15448;51.956;7.670;2022-07-06T01:34:26;21.50;51.40
28161;DHT22;15448;51.956;7.670;2022-07-06T01:36:51;21.50;51.50
28161;DHT22;15448;51.956;7.670;2022-07-06T01:39:17;21.40;51.20
28161;DHT22;15448;51.956;7.670;2022-07-06T01:41:42;21.30;52.00
28161;DHT22;15448;51.956;7.670;2022-07-06T01:44:08;21.30;51.50
28161;DHT22;15448;51.956;7.670;2022-07-06T01:46:34;21.30;51.40
28161;DHT22;15448;51.956;7.670;2022-07-06T01:49:00;20.30;51.00
28161;DHT22;15448;51.956;7.670;2022-07-06T01:51:26;21.20;51.90
28161;DHT22;15448;51.956;7.670;2022-07-06T01:53:52;21.20;51.70
28161;DHT22;15448;51.956;7.670;2022-07-06T01:56:19;21.20;51.50
28161;DHT22;15448;51.956;7.670;2022-07-06T01:58:46;21.20;51.70
28161;DHT22;15448;51.956;7.670;2022-07-06T02:01:14;21.20;51.90
28161;DHT22;15448;51.956;7.670;2022-07-06T02:03:40;21.20;51.90
28161;DHT22;15448;51.956;7.670;2022-07-06T02:06:06;21.20;51.90
28161;DHT22;15448;51.956;7.670;2022-07-06T02:08:33;21.20;51.40
28161;DHT22;15448;51.956;7.670;2022-07-06T02:10:59;21.10;51.80
28161;DHT22;15448;51.956;7.670;2022-07-06T02:13:25;21.00;52.10
28161;DHT22;15448;51.956;7.670;2022-07-06T02:15:51;21.00;51.90
28161;DHT22;15448;51.956;7.670;2022-07-06T02:18:16;21.00;52.20
28161;DHT22;15448;51.956;7.670;2022-07-06T02:20:42;21.00;52.00
28161;DHT22;15448;51.956;7.670;2022-07-06T02:23:08;21.00;52.30
28161;DHT22;15448;51.956;7.670;2022-07-06T02:25:34;21.00;52.20
28161;DHT22;15448;51.956;7.670;2022-07-06T02:27:59;21.00;52.50
28161;DHT22;15448;51.956;7.670;2022-07-06T02:30:25;21.10;52.10
28161;DHT22;15448;51.956;7.670;2022-07-06T02:32:51;21.00;51.60
28161;DHT22;15448;51.956;7.670;2022-07-06T02:35:16;21.00;51.90
28161;DHT22;15448;51.956;7.670;2022-07-06T02:37:42;21.00;52.10
28161;DHT22;15448;51.956;7.670;2022-07-06T02:40:08;21.00;52.00
28161;DHT22;15448;51.956;7.670;2022-07-06T02:42:34;21.00;52.10
28161;DHT22;15448;51.956;7.670;2022-07-06T02:44:59;21.00;52.00
28161;DHT22;15448;51.956;7.670;2022-07-06T02:47:25;20.90;52.00
28161;DHT22;15448;51.956;7.670;2022-07-06T02:49:52;21.00;52.20
28161;DHT22;15448;51.956;7.670;2022-07-06T02:52:18;20.90;52.10
28161;DHT22;15448;51.956;7.670;2022-07-06T02:54:43;21.00;52.20
28161;DHT22;15448;51.956;7.670;2022-07-06T02:57:09;21.00;52.10
28161;DHT22;15448;51.956;7.670;2022-07-06T02:59:35;20.90;52.10
28161;DHT22;15448;51.956;7.670;2022-07-06T03:02:02;20.90;52.20
28161;DHT22;15448;51.956;7.670;2022-07-06T03:04:28;20.90;52.30
28161;DHT22;15448;51.956;7.670;2022-07-06T03:06:53;20.90;52.40
28161;DHT22;15448;51.956;7.670;2022-07-06T03:09:19;20.90;52.20
28161;DHT22;15448;51.956;7.670;2022-07-06T03:11:44;20.90;52.30
28161;DHT22;15448;51.956;7.670;2022-07-06T03:14:10;20.80;52.30
28161;DHT22;15448;51.956;7.670;2022-07-06T03:16:35;20.80;52.50
28161;DHT22;15448;51.956;7.670;2022-07-06T03:19:01;20.80;52.30
28161;DHT22;15448;51.956;7.670;2022-07-06T03:21:26;20.70;52.60
28161;DHT22;15448;51.956;7.670;2022-07-06T03:23:52;20.70;52.60
28161;DHT22;15448;51.956;7.670;2022-07-06T03:26:18;20.70;52.70
28161;DHT22;15448;51.956;7.670;2022-07-06T03:28:43;20.70;52.60
28161;DHT22;15448;51.956;7.670;2022-07-06T03:31:09;20.70;52.60
28161;DHT22;15448;51.956;7.670;2022-07-06T03:33:34;20.70;52.50
28161;DHT22;15448;51.956;7.670;2022-07-06T03:36:00;20.70;52.60
28161;DHT22;15448;51.956;7.670;2022-07-06T03:38:26;20.70;52.50
28161;DHT22;15448;51.956;7.670;2022-07-06T03:40:51;20.60;52.70
28161;DHT22;15448;51.956;7.670;2022-07-06T03:43:17;20.60;52.80
28161;DHT22;15448;51.956;7.670;2022-07-06T03:45:43;20.60;52.90
28161;DHT22;15448;51.956;7.670;2022-07-06T03:48:08;20.60;52.90
28161;DHT22;15448;51.956;7.670;2022-07-06T03:50:34;20.60;53.00
28161;DHT22;15448;51.956;7.670;2022-07-06T03:53:00;20.60;53.10
28161;DHT22;15448;51.956;7.670;2022-07-06T03:55:26;20.60;52.90
28161;DHT22;15448;51.956;7.670;2022-07-06T03:57:52;20.60;53.00
28161;DHT22;15448;51.956;7.670;2022-07-06T04:00:17;20.50;53.00
28161;DHT22;15448;51.956;7.670;2022-07-06T04:02:43;20.50;53.20
28161;DHT22;15448;51.956;7.670;2022-07-06T04:05:08;20.60;53.70
28161;DHT22;15448;51.956;7.670;2022-07-06T04:07:34;20.60;53.50
28161;DHT22;15448;51.956;7.670;2022-07-06T04:10:00;20.50;53.00
28161;DHT22;15448;51.956;7.670;2022-07-06T04:12:25;20.60;53.30
28161;DHT22;15448;51.956;7.670;2022-07-06T04:14:51;20.50;53.20
28161;DHT22;15448;51.956;7.670;2022-07-06T04:17:16;20.50;53.30
28161;DHT22;15448;51.956;7.670;2022-07-06T04:20:01;20.50;53.40
28161;DHT22;15448;51.956;7.670;2022-07-06T04:22:26;20.40;53.60
28161;DHT22;15448;51.956;7.670;2022-07-06T04:24:52;20.30;53.20
28161;DHT22;15448;51.956;7.670;2022-07-06T04:27:17;20.30;53.90
28161;DHT22;15448;51.956;7.670;2022-07-06T04:29:43;20.20;53.60
28161;DHT22;15448;51.956;7.670;2022-07-06T04:32:09;20.20;53.80
28161;DHT22;15448;51.956;7.670;2022-07-06T04:34:34;20.20;54.20
28161;DHT22;15448;51.956;7.670;2022-07-06T04:37:00;20.10;54.20
28161;DHT22;15448;51.956;7.670;2022-07-06T04:39:25;20.10;54.50
28161;DHT22;15448;51.956;7.670;2022-07-06T04:41:51;20.20;54.40
28161;DHT22;15448;51.956;7.670;2022-07-06T04:44:16;20.00;54.10
28161;DHT22;15448;51.956;7.670;2022-07-06T04:46:42;19.90;54.60
28161;DHT22;15448;51.956;7.670;2022-07-06T04:49:07;20.00;55.00
28161;DHT22;15448;51.956;7.670;2022-07-06T04:51:33;20.00;54.70
28161;DHT22;15448;51.956;7.670;2022-07-06T04:53:59;20.10;54.50
28161;DHT22;15448;51.956;7.670;2022-07-06T04:56:24;20.20;54.50
28161;DHT22;15448;51.956;7.670;2022-07-06T04:58:50;20.20;54.70
28161;DHT22;15448;51.956;7.670;2022-07-06T05:01:15;20.20;54.40
28161;DHT22;15448;51.956;7.670;2022-07-06T05:03:41;20.20;54.70
28161;DHT22;15448;51.956;7.670;2022-07-06T05:06:07;20.20;55.60
28161;DHT22;15448;51.956;7.670;2022-07-06T05:08:33;20.00;54.50
28161;DHT22;15448;51.956;7.670;2022-07-06T05:10:59;20.10;55.30
28161;DHT22;15448;51.956;7.670;2022-07-06T05:13:25;20.10;55.30
28161;DHT22;15448;51.956;7.670;2022-07-06T05:15:50;20.20;55.00
28161;DHT22;15448;51.956;7.670;2022-07-06T05:18:16;20.10;54.90
28161;DHT22;15448;51.956;7.670;2022-07-06T05:20:41;20.20;55.10
28161;DHT22;15448;51.956;7.670;2022-07-06T05:23:08;20.30;54.90
28161;DHT22;15448;51.956;7.670;2022-07-06T05:25:33;20.30;54.90
28161;DHT22;15448;51.956;7.670;2022-07-06T05:27:59;20.20;54.70
28161;DHT22;15448;51.956;7.670;2022-07-06T05:30:25;20.30;55.00
28161;DHT22;15448;51.956;7.670;2022-07-06T05:32:51;20.30;55.00
28161;DHT22;15448;51.956;7.670;2022-07-06T05:35:16;20.30;55.00
28161;DHT22;15448;51.956;7.670;2022-07-06T05:37:42;20.30;54.90
28161;DHT22;15448;51.956;7.670;2022-07-06T05:40:08;20.20;54.90
28161;DHT22;15448;51.956;7.670;2022-07-06T05:42:34;20.20;54.80
28161;DHT22;15448;51.956;7.670;2022-07-06T05:44:59;20.20;55.00
28161;DHT22;15448;51.956;7.670;2022-07-06T05:47:25;20.30;54.90
28161;DHT22;15448;51.956;7.670;2022-07-06T05:50:09;20.30;54.80
28161;DHT22;15448;51.956;7.670;2022-07-06T05:52:42;20.20;54.70
28161;DHT22;15448;51.956;7.670;2022-07-06T05:55:09;20.30;54.80
28161;DHT22;15448;51.956;7.670;2022-07-06T05:57:34;20.30;55.20
28161;DHT22;15448;51.956;7.670;2022-07-06T06:00:00;20.40;55.00
28161;DHT22;15448;51.956;7.670;2022-07-06T06:02:26;20.30;54.80
28161;DHT22;15448;51.956;7.670;2022-07-06T06:04:53;20.40;54.90
28161;DHT22;15448;51.956;7.670;2022-07-06T06:07:18;20.40;55.00
28161;DHT22;15448;51.956;7.670;2022-07-06T06:09:44;20.40;55.10
28161;DHT22;15448;51.956;7.670;2022-07-06T06:12:10;20.40;54.90
28161;DHT22;15448;51.956;7.670;2022-07-06T06:14:35;20.40;55.00
28161;DHT22;15448;51.956;7.670;2022-07-06T06:17:01;20.40;55.30
28161;DHT22;15448;51.956;7.670;2022-07-06T06:19:26;20.40;55.20
28161;DHT22;15448;51.956;7.670;2022-07-06T06:21:52;20.50;55.30
28161;DHT22;15448;51.956;7.670;2022-07-06T06:24:17;20.50;55.40
28161;DHT22;15448;51.956;7.670;2022-07-06T06:26:43;20.40;55.00
28161;DHT22;15448;51.956;7.670;2022-07-06T06:29:09;20.50;55.20
28161;DHT22;15448;51.956;7.670;2022-07-06T06:31:34;20.50;55.30
28161;DHT22;15448;51.956;7.670;2022-07-06T06:34:00;20.50;55.00
28161;DHT22;15448;51.956;7.670;2022-07-06T06:36:25;20.60;55.00
28161;DHT22;15448;51.956;7.670;2022-07-06T06:38:51;20.60;55.00
28161;DHT22;15448;51.956;7.670;2022-07-06T06:41:16;20.60;55.10
28161;DHT22;15448;51.956;7.670;2022-07-06T06:43:43;20.50;54.70
28161;DHT22;15448;51.956;7.670;2022-07-06T06:46:11;20.50;55.10
28161;DHT22;15448;51.956;7.670;2022-07-06T06:48:37;20.50;55.20
28161;DHT22;15448;51.956;7.670;2022-07-06T06:51:04;20.50;55.20
28161;DHT22;15448;51.956;7.670;2022-07-06T06:53:29;20.50;55.40
28161;DHT22;15448;51.956;7.670;2022-07-06T06:55:55;20.60;55.20
28161;DHT22;15448;51.956;7.670;2022-07-06T06:58:20;20.60;55.40
28161;DHT22;15448;51.956;7.670;2022-07-06T07:00:46;20.60;55.30
28161;DHT22;15448;51.956;7.670;2022-07-06T07:03:12;20.60;55.20
28161;DHT22;15448;51.956;7.670;2022-07-06T07:05:38;20.60;55.00
28161;DHT22;15448;51.956;7.670;2022-07-06T07:08:04;20.60;55.00
28161;DHT22;15448;51.956;7.670;2022-07-06T07:10:30;20.60;55.00
28161;DHT22;15448;51.956;7.670;2022-07-06T07:12:55;20.60;55.00
28161;DHT22;15448;51.956;7.670;2022-07-06T07:15:21;20.60;54.90
28161;DHT22;15448;51.956;7.670;2022-07-06T07:17:46;20.70;54.80
28161;DHT22;15448;51.956;7.670;2022-07-06T07:20:12;20.70;54.50
28161;DHT22;15448;51.956;7.670;2022-07-06T07:22:37;20.70;54.60
28161;DHT22;15448;51.956;7.670;2022-07-06T07:25:04;20.60;54.20
28161;DHT22;15448;51.956;7.670;2022-07-06T07:27:30;20.70;54.70
28161;DHT22;15448;51.956;7.670;2022-07-06T07:29:56;20.70;54.30
28161;DHT22;15448;51.956;7.670;2022-07-06T07:32:21;20.70;54.40
28161;DHT22;15448;51.956;7.670;2022-07-06T07:34:47;20.70;54.40
28161;DHT22;15448;51.956;7.670;2022-07-06T07:37:12;20.70;54.30
28161;DHT22;15448;51.956;7.670;2022-07-06T07:39:38;20.70;54.30
28161;DHT22;15448;51.956;7.670;2022-07-06T07:42:04;20.70;54.50
28161;DHT22;15448;51.956;7.670;2022-07-06T07:44:29;20.70;54.30
28161;DHT22;15448;51.956;7.670;2022-07-06T07:46:55;20.80;54.30
28161;DHT22;15448;51.956;7.670;2022-07-06T07:49:21;20.80;54.40
28161;DHT22;15448;51.956;7.670;2022-07-06T07:51:47;20.80;54.40
28161;DHT22;15448;51.956;7.670;2022-07-06T07:54:13;20.80;54.00
28161;DHT22;15448;51.956;7.670;2022-07-06T07:56:38;20.80;54.50
28161;DHT22;15448;51.956;7.670;2022-07-06T07:59:07;20.80;54.30
28161;DHT22;15448;51.956;7.670;2022-07-06T08:01:33;20.90;54.30
28161;DHT22;15448;51.956;7.670;2022-07-06T08:03:59;20.80;54.20
28161;DHT22;15448;51.956;7.670;2022-07-06T08:06:25;20.80;54.20
28161;DHT22;15448;51.956;7.670;2022-07-06T08:08:51;20.90;54.90
28161;DHT22;15448;51.956;7.670;2022-07-06T08:11:17;20.90;54.10
28161;DHT22;15448;51.956;7.670;2022-07-06T08:13:42;20.80;53.90
28161;DHT22;15448;51.956;7.670;2022-07-06T08:16:08;20.80;54.00
28161;DHT22;15448;51.956;7.670;2022-07-06T08:18:35;20.90;54.10
28161;DHT22;15448;51.956;7.670;2022-07-06T08:21:01;20.90;53.80
28161;DHT22;15448;51.956;7.670;2022-07-06T08:23:26;20.80;53.60
28161;DHT22;15448;51.956;7.670;2022-07-06T08:25:52;20.80;53.70
28161;DHT22;15448;51.956;7.670;2022-07-06T08:28:17;20.80;53.90
28161;DHT22;15448;51.956;7.670;2022-07-06T08:30:43;20.80;53.80
28161;DHT22;15448;51.956;7.670;2022-07-06T08:33:08;20.80;53.90
28161;DHT22;15448;51.956;7.670;2022-07-06T08:35:34;20.90;55.30
28161;DHT22;15448;51.956;7.670;2022-07-06T08:37:59;20.90;54.00
28161;DHT22;15448;51.956;7.670;2022-07-06T08:40:27;20.80;53.10
28161;DHT22;15448;51.956;7.670;2022-07-06T08:42:56;21.00;53.70
28161;DHT22;15448;51.956;7.670;2022-07-06T08:45:24;21.00;53.70
28161;DHT22;15448;51.956;7.670;2022-07-06T08:47:50;21.00;53.70
28161;DHT22;15448;51.956;7.670;2022-07-06T08:50:18;21.00;54.20
28161;DHT22;15448;51.956;7.670;2022-07-06T08:52:47;21.10;52.90
28161;DHT22;15448;51.956;7.670;2022-07-06T08:55:13;20.90;52.20
28161;DHT22;15448;51.956;7.670;2022-07-06T08:57:39;20.80;52.40
28161;DHT22;15448;51.956;7.670;2022-07-06T09:00:09;20.80;52.40
28161;DHT22;15448;51.956;7.670;2022-07-06T09:02:36;20.90;52.40
28161;DHT22;15448;51.956;7.670;2022-07-06T09:05:03;21.00;53.60
28161;DHT22;15448;51.956;7.670;2022-07-06T09:07:29;21.00;51.70
28161;DHT22;15448;51.956;7.670;2022-07-06T09:09:55;20.90;51.40
28161;DHT22;15448;51.956;7.670;2022-07-06T09:12:21;21.00;52.00
28161;DHT22;15448;51.956;7.670;2022-07-06T09:14:47;21.00;51.80
28161;DHT22;15448;51.956;7.670;2022-07-06T09:17:13;21.10;51.80
28161;DHT22;15448;51.956;7.670;2022-07-06T09:19:39;21.00;53.30
28161;DHT22;15448;51.956;7.670;2022-07-06T09:22:05;21.10;53.30
28161;DHT22;15448;51.956;7.670;2022-07-06T09:24:31;21.10;52.70
28161;DHT22;15448;51.956;7.670;2022-07-06T09:26:57;21.00;51.10
28161;DHT22;15448;51.956;7.670;2022-07-06T09:29:32;21.00;51.20
28161;DHT22;15448;51.956;7.670;2022-07-06T09:32:03;21.10;51.50
28161;DHT22;15448;51.956;7.670;2022-07-06T09:34:43;21.10;51.40
28161;DHT22;15448;51.956;7.670;2022-07-06T09:37:09;21.10;50.60
28161;DHT22;15448;51.956;7.670;2022-07-06T09:39:35;21.00;50.50
28161;DHT22;15448;51.956;7.670;2022-07-06T09:42:02;21.10;51.00
28161;DHT22;15448;51.956;7.670;2022-07-06T09:44:31;21.10;52.00
28161;DHT22;15448;51.956;7.670;2022-07-06T09:47:03;21.20;50.70
28161;DHT22;15448;51.956;7.670;2022-07-06T09:49:29;21.10;51.80
28161;DHT22;15448;51.956;7.670;2022-07-06T09:52:01;21.20;51.60
28161;DHT22;15448;51.956;7.670;2022-07-06T09:54:27;21.20;52.70
28161;DHT22;15448;51.956;7.670;2022-07-06T09:56:54;21.20;52.10
28161;DHT22;15448;51.956;7.670;2022-07-06T09:59:22;21.10;51.70
28161;DHT22;15448;51.956;7.670;2022-07-06T10:01:52;21.10;52.00
28161;DHT22;15448;51.956;7.670;2022-07-06T10:04:20;21.20;50.00
28161;DHT22;15448;51.956;7.670;2022-07-06T10:06:46;21.20;49.70
28161;DHT22;15448;51.956;7.670;2022-07-06T10:09:13;21.20;49.80
28161;DHT22;15448;51.956;7.670;2022-07-06T10:11:50;21.20;51.70
28161;DHT22;15448;51.956;7.670;2022-07-06T10:14:27;21.10;50.00
28161;DHT22;15448;51.956;7.670;2022-07-06T10:16:55;21.30;51.90
28161;DHT22;15448;51.956;7.670;2022-07-06T10:19:22;21.20;51.40
28161;DHT22;15448;51.956;7.670;2022-07-06T10:21:48;21.20;50.40
28161;DHT22;15448;51.956;7.670;2022-07-06T10:24:14;21.30;51.30
28161;DHT22;15448;51.956;7.670;2022-07-06T10:26:41;21.20;51.60
28161;DHT22;15448;51.956;7.670;2022-07-06T10:29:08;21.20;52.10
28161;DHT22;15448;51.956;7.670;2022-07-06T10:31:38;21.10;52.10
28161;DHT22;15448;51.956;7.670;2022-07-06T10:34:07;21.20;51.70
28161;DHT22;15448;51.956;7.670;2022-07-06T10:36:39;21.20;51.10
28161;DHT22;15448;51.956;7.670;2022-07-06T10:39:05;21.30;51.20
28161;DHT22;15448;51.956;7.670;2022-07-06T10:41:50;21.30;49.30
28161;DHT22;15448;51.956;7.670;2022-07-06T10:44:26;21.20;49.30
28161;DHT22;15448;51.956;7.670;2022-07-06T10:46:58;21.30;51.80
28161;DHT22;15448;51.956;7.670;2022-07-06T10:49:26;21.30;51.60
28161;DHT22;15448;51.956;7.670;2022-07-06T10:51:52;21.30;51.30
28161;DHT22;15448;51.956;7.670;2022-07-06T10:54:20;21.30;51.60
28161;DHT22;15448;51.956;7.670;2022-07-06T10:56:48;21.30;51.70
28161;DHT22;15448;51.956;7.670;2022-07-06T10:59:19;21.30;51.30
28161;DHT22;15448;51.956;7.670;2022-07-06T11:02:15;21.30;51.50
28161;DHT22;15448;51.956;7.670;2022-07-06T11:04:45;21.30;51.70
28161;DHT22;15448;51.956;7.670;2022-07-06T11:07:13;21.30;51.30
28161;DHT22;15448;51.956;7.670;2022-07-06T11:09:39;21.40;50.90
28161;DHT22;15448;51.956;7.670;2022-07-06T11:12:20;21.40;51.60
28161;DHT22;15448;51.956;7.670;2022-07-06T11:14:47;21.40;51.10
28161;DHT22;15448;51.956;7.670;2022-07-06T11:17:14;21.40;51.50
28161;DHT22;15448;51.956;7.670;2022-07-06T11:19:55;21.30;51.40
28161;DHT22;15448;51.956;7.670;2022-07-06T11:22:21;21.30;51.50
28161;DHT22;15448;51.956;7.670;2022-07-06T11:24:49;21.30;50.70
28161;DHT22;15448;51.956;7.670;2022-07-06T11:27:17;21.40;51.00
28161;DHT22;15448;51.956;7.670;2022-07-06T11:29:43;21.40;51.20
28161;DHT22;15448;51.956;7.670;2022-07-06T11:32:11;21.40;51.10
28161;DHT22;15448;51.956;7.670;2022-07-06T11:34:39;21.30;50.50
28161;DHT22;15448;51.956;7.670;2022-07-06T11:37:09;21.40;50.60
28161;DHT22;15448;51.956;7.670;2022-07-06T11:39:37;21.40;50.90
28161;DHT22;15448;51.956;7.670;2022-07-06T11:42:06;21.50;50.90
28161;DHT22;15448;51.956;7.670;2022-07-06T11:44:32;21.20;51.10
28161;DHT22;15448;51.956;7.670;2022-07-06T11:46:58;21.50;51.10
28161;DHT22;15448;51.956;7.670;2022-07-06T11:49:26;21.40;50.50
28161;DHT22;15448;51.956;7.670;2022-07-06T11:51:52;21.40;50.60
28161;DHT22;15448;51.956;7.670;2022-07-06T11:54:19;21.40;50.80
28161;DHT22;15448;51.956;7.670;2022-07-06T11:56:46;21.30;51.00
28161;DHT22;15448;51.956;7.670;2022-07-06T11:59:12;21.30;50.90
28161;DHT22;15448;51.956;7.670;2022-07-06T12:01:37;21.30;50.80
28161;DHT22;15448;51.956;7.670;2022-07-06T12:04:07;21.40;50.70
28161;DHT22;15448;51.956;7.670;2022-07-06T12:06:33;21.40;50.30
28161;DHT22;15448;51.956;7.670;2022-07-06T12:09:00;21.50;50.10
28161;DHT22;15448;51.956;7.670;2022-07-06T12:11:30;21.40;50.00
28161;DHT22;15448;51.956;7.670;2022-07-06T12:14:01;21.50;49.40
28161;DHT22;15448;51.956;7.670;2022-07-06T12:16:35;21.50;49.70
28161;DHT22;15448;51.956;7.670;2022-07-06T12:19:05;21.50;49.50
28161;DHT22;15448;51.956;7.670;2022-07-06T12:21:32;21.40;49.90
28161;DHT22;15448;51.956;7.670;2022-07-06T12:23:58;21.40;50.00
28161;DHT22;15448;51.956;7.670;2022-07-06T12:26:25;21.40;50.00
28161;DHT22;15448;51.956;7.670;2022-07-06T12:31:32;21.40;50.40
28161;DHT22;15448;51.956;7.670;2022-07-06T12:33:59;21.50;50.10
28161;DHT22;15448;51.956;7.670;2022-07-06T12:36:24;21.50;50.20
28161;DHT22;15448;51.956;7.670;2022-07-06T12:38:50;21.50;50.20
28161;DHT22;15448;51.956;7.670;2022-07-06T12:41:32;21.50;50.20
28161;DHT22;15448;51.956;7.670;2022-07-06T12:44:12;21.50;49.50
28161;DHT22;15448;51.956;7.670;2022-07-06T12:46:39;21.60;49.20
28161;DHT22;15448;51.956;7.670;2022-07-06T12:49:19;21.60;50.10
28161;DHT22;15448;51.956;7.670;2022-07-06T12:52:12;21.60;49.60
28161;DHT22;15448;51.956;7.670;2022-07-06T12:54:43;21.60;49.80
28161;DHT22;15448;51.956;7.670;2022-07-06T12:57:18;21.60;49.50
28161;DHT22;15448;51.956;7.670;2022-07-06T13:02:17;21.60;49.80
28161;DHT22;15448;51.956;7.670;2022-07-06T13:04:43;21.60;49.90
28161;DHT22;15448;51.956;7.670;2022-07-06T13:07:18;21.60;49.60
28161;DHT22;15448;51.956;7.670;2022-07-06T13:09:45;21.60;49.00
28161;DHT22;15448;51.956;7.670;2022-07-06T13:12:10;21.60;49.00
28161;DHT22;15448;51.956;7.670;2022-07-06T13:14:36;21.60;48.50
28161;DHT22;15448;51.956;7.670;2022-07-06T13:17:02;21.60;50.20
28161;DHT22;15448;51.956;7.670;2022-07-06T13:19:28;21.50;50.30
28161;DHT22;15448;51.956;7.670;2022-07-06T13:21:53;21.50;50.00
28161;DHT22;15448;51.956;7.670;2022-07-06T13:24:19;21.50;49.20
28161;DHT22;15448;51.956;7.670;2022-07-06T13:26:44;21.50;49.50
28161;DHT22;15448;51.956;7.670;2022-07-06T13:29:11;21.50;49.30
28161;DHT22;15448;51.956;7.670;2022-07-06T13:31:38;21.50;49.40
28161;DHT22;15448;51.956;7.670;2022-07-06T13:34:04;21.60;48.70
28161;DHT22;15448;51.956;7.670;2022-07-06T13:36:31;21.60;49.80
28161;DHT22;15448;51.956;7.670;2022-07-06T13:38:56;21.50;49.50
28161;DHT22;15448;51.956;7.670;2022-07-06T13:41:22;21.50;49.50
28161;DHT22;15448;51.956;7.670;2022-07-06T13:43:47;21.50;49.10
28161;DHT22;15448;51.956;7.670;2022-07-06T13:46:13;21.50;49.20
28161;DHT22;15448;51.956;7.670;2022-07-06T13:48:38;21.50;48.60
28161;DHT22;15448;51.956;7.670;2022-07-06T13:51:04;21.50;48.70
28161;DHT22;15448;51.956;7.670;2022-07-06T13:53:29;21.50;48.60
28161;DHT22;15448;51.956;7.670;2022-07-06T13:55:56;21.60;48.50
28161;DHT22;15448;51.956;7.670;2022-07-06T13:58:22;21.60;48.80
28161;DHT22;15448;51.956;7.670;2022-07-06T14:00:47;21.60;49.10
28161;DHT22;15448;51.956;7.670;2022-07-06T14:03:13;21.50;49.20
28161;DHT22;15448;51.956;7.670;2022-07-06T14:05:39;21.50;49.40
28161;DHT22;15448;51.956;7.670;2022-07-06T14:08:04;21.50;48.80
28161;DHT22;15448;51.956;7.670;2022-07-06T14:10:31;21.50;48.60
28161;DHT22;15448;51.956;7.670;2022-07-06T14:12:57;21.60;47.90
28161;DHT22;15448;51.956;7.670;2022-07-06T14:15:22;21.60;48.60
28161;DHT22;15448;51.956;7.670;2022-07-06T14:17:48;21.60;48.20
28161;DHT22;15448;51.956;7.670;2022-07-06T14:20:15;21.60;49.00
28161;DHT22;15448;51.956;7.670;2022-07-06T14:22:40;21.60;48.90
28161;DHT22;15448;51.956;7.670;2022-07-06T14:25:06;21.40;48.60
28161;DHT22;15448;51.956;7.670;2022-07-06T14:27:33;21.50;48.10
28161;DHT22;15448;51.956;7.670;2022-07-06T14:29:59;21.50;48.10
28161;DHT22;15448;51.956;7.670;2022-07-06T14:32:24;21.60;47.80
28161;DHT22;15448;51.956;7.670;2022-07-06T14:34:50;21.60;48.40
28161;DHT22;15448;51.956;7.670;2022-07-06T14:37:16;21.60;48.20
28161;DHT22;15448;51.956;7.670;2022-07-06T14:39:42;21.60;48.20
28161;DHT22;15448;51.956;7.670;2022-07-06T14:42:07;21.60;48.20
28161;DHT22;15448;51.956;7.670;2022-07-06T14:44:33;21.60;48.50
28161;DHT22;15448;51.956;7.670;2022-07-06T14:46:59;21.60;48.60
28161;DHT22;15448;51.956;7.670;2022-07-06T14:49:24;21.60;49.00
28161;DHT22;15448;51.956;7.670;2022-07-06T14:51:50;21.40;49.00
28161;DHT22;15448;51.956;7.670;2022-07-06T14:54:15;21.70;49.20
28161;DHT22;15448;51.956;7.670;2022-07-06T14:56:41;21.50;47.20
28161;DHT22;15448;51.956;7.670;2022-07-06T14:59:07;21.60;48.40
28161;DHT22;15448;51.956;7.670;2022-07-06T15:01:32;21.60;48.40
28161;DHT22;15448;51.956;7.670;2022-07-06T15:03:58;21.50;48.50
28161;DHT22;15448;51.956;7.670;2022-07-06T15:06:23;21.50;48.60
28161;DHT22;15448;51.956;7.670;2022-07-06T15:08:49;21.40;48.70
28161;DHT22;15448;51.956;7.670;2022-07-06T15:11:14;21.50;48.20
28161;DHT22;15448;51.956;7.670;2022-07-06T15:13:40;21.50;47.90
28161;DHT22;15448;51.956;7.670;2022-07-06T15:16:05;21.50;48.30
28161;DHT22;15448;51.956;7.670;2022-07-06T15:18:31;21.50;48.60
28161;DHT22;15448;51.956;7.670;2022-07-06T15:20:57;21.50;48.60
28161;DHT22;15448;51.956;7.670;2022-07-06T15:23:23;21.60;48.40
28161;DHT22;15448;51.956;7.670;2022-07-06T15:25:48;21.60;47.90
28161;DHT22;15448;51.956;7.670;2022-07-06T15:28:14;21.70;47.60
28161;DHT22;15448;51.956;7.670;2022-07-06T15:30:41;21.60;48.20
28161;DHT22;15448;51.956;7.670;2022-07-06T15:33:07;21.60;47.80